sensor_id;sensor_type;location;lat;lon;timestamp;P1;durP1;ratioP1;P2;durP2;ratioP2
38865;SDS011;62686;48.984;8.394;2023-04-01T00:01:03;2.30;;;1.00;;
38865;SDS011;62686;48.984;8.394;2023-04-01T00:03:32;6.07;;;1.30;;
38865;SDS011;62686;48.984;8.394;2023-04-01T00:06:03;3.47;;;1.10;;
38865;SDS011;62686;48.984;8.394;2023-04-01T00:08:31;5.03;;;1.13;;
38865;SDS011;62686;48.984;8.394;2023-04-01T00:11:00;4.53;;;1.17;;
38865;SDS011;62686;48.984;8.394;2023-04-01T00:13:30;3.13;;;1.07;;
38865;SDS011;62686;48.984;8.394;2023-04-01T00:15:58;4.47;;;1.30;;
38865;SDS011;62686;48.984;8.394;2023-04-01T00:18:28;3.60;;;1.30;;
38865;SDS011;62686;48.984;8.394;2023-04-01T00:20:56;4.10;;;1.30;;
38865;SDS011;62686;48.984;8.394;2023-04-01T00:23:26;2.73;;;1.07;;
38865;SDS011;62686;48.984;8.394;2023-04-01T00:25:55;5.23;;;1.27;;
38865;SDS011;62686;48.984;8.394;2023-04-01T00:28:23;4.03;;;1.70;;
38865;SDS011;62686;48.984;8.394;2023-04-01T00:30:51;4.13;;;1.40;;
38865;SDS011;62686;48.984;8.394;2023-04-01T00:33:31;5.40;;;1.50;;
38865;SDS011;62686;48.984;8.394;2023-04-01T00:36:05;7.63;;;1.53;;
38865;SDS011;62686;48.984;8.394;2023-04-01T00:38:36;5.57;;;1.10;;
38865;SDS011;62686;48.984;8.394;2023-04-01T00:41:05;6.00;;;1.50;;
38865;SDS011;62686;48.984;8.394;2023-04-01T00:43:34;4.17;;;1.07;;
38865;SDS011;62686;48.984;8.394;2023-04-01T00:46:02;4.17;;;1.20;;
38865;SDS011;62686;48.984;8.394;2023-04-01T00:48:31;2.43;;;1.03;;
38865;SDS011;62686;48.984;8.394;2023-04-01T00:51:04;3.37;;;1.20;;
38865;SDS011;62686;48.984;8.394;2023-04-01T00:53:37;7.23;;;1.50;;
38865;SDS011;62686;48.984;8.394;2023-04-01T00:56:09;3.47;;;1.30;;
38865;SDS011;62686;48.984;8.394;2023-04-01T00:58:41;3.87;;;1.23;;
38865;SDS011;62686;48.984;8.394;2023-04-01T01:01:11;2.23;;;0.90;;
38865;SDS011;62686;48.984;8.394;2023-04-01T01:03:40;4.93;;;1.20;;
38865;SDS011;62686;48.984;8.394;2023-04-01T01:06:15;3.07;;;1.00;;
38865;SDS011;62686;48.984;8.394;2023-04-01T01:09:08;5.60;;;1.10;;
38865;SDS011;62686;48.984;8.394;2023-04-01T01:11:46;3.97;;;1.10;;
38865;SDS011;62686;48.984;8.394;2023-04-01T01:14:23;4.80;;;1.40;;
38865;SDS011;62686;48.984;8.394;2023-04-01T01:17:02;3.27;;;1.17;;
38865;SDS011;62686;48.984;8.394;2023-04-01T01:19:50;4.43;;;1.00;;
38865;SDS011;62686;48.984;8.394;2023-04-01T01:22:32;3.27;;;0.90;;
38865;SDS011;62686;48.984;8.394;2023-04-01T01:25:16;4.00;;;0.90;;
38865;SDS011;62686;48.984;8.394;2023-04-01T01:27:56;2.80;;;1.10;;
38865;SDS011;62686;48.984;8.394;2023-04-01T01:30:37;5.00;;;1.00;;
38865;SDS011;62686;48.984;8.394;2023-04-01T01:33:12;3.57;;;1.20;;
38865;SDS011;62686;48.984;8.394;2023-04-01T01:35:58;4.60;;;1.00;;
38865;SDS011;62686;48.984;8.394;2023-04-01T01:38:31;1.70;;;0.87;;
38865;SDS011;62686;48.984;8.394;2023-04-01T01:41:02;2.03;;;0.80;;
38865;SDS011;62686;48.984;8.394;2023-04-01T01:43:33;2.30;;;1.10;;
38865;SDS011;62686;48.984;8.394;2023-04-01T01:46:04;3.53;;;0.77;;
38865;SDS011;62686;48.984;8.394;2023-04-01T01:48:35;1.07;;;0.70;;
38865;SDS011;62686;48.984;8.394;2023-04-01T01:51:07;1.80;;;0.77;;
38865;SDS011;62686;48.984;8.394;2023-04-01T01:53:36;2.50;;;0.80;;
38865;SDS011;62686;48.984;8.394;2023-04-01T01:56:05;0.83;;;0.57;;
38865;SDS011;62686;48.984;8.394;2023-04-01T01:58:35;1.50;;;0.70;;
38865;SDS011;62686;48.984;8.394;2023-04-01T02:01:08;1.47;;;0.70;;
38865;SDS011;62686;48.984;8.394;2023-04-01T02:03:41;1.53;;;0.70;;
38865;SDS011;62686;48.984;8.394;2023-04-01T02:06:13;1.90;;;0.60;;
38865;SDS011;62686;48.984;8.394;2023-04-01T02:08:45;0.90;;;0.50;;
38865;SDS011;62686;48.984;8.394;2023-04-01T02:11:18;0.90;;;0.60;;
38865;SDS011;62686;48.984;8.394;2023-04-01T02:13:54;1.60;;;0.53;;
38865;SDS011;62686;48.984;8.394;2023-04-01T02:16:28;1.03;;;0.43;;
38865;SDS011;62686;48.984;8.394;2023-04-01T02:19:00;2.33;;;0.50;;
38865;SDS011;62686;48.984;8.394;2023-04-01T02:21:35;1.70;;;0.60;;
38865;SDS011;62686;48.984;8.394;2023-04-01T02:24:05;1.40;;;0.60;;
38865;SDS011;62686;48.984;8.394;2023-04-01T02:26:36;0.77;;;0.40;;
38865;SDS011;62686;48.984;8.394;2023-04-01T02:29:05;0.40;;;0.30;;
38865;SDS011;62686;48.984;8.394;2023-04-01T02:31:35;2.10;;;0.40;;
38865;SDS011;62686;48.984;8.394;2023-04-01T02:34:04;1.37;;;0.40;;
38865;SDS011;62686;48.984;8.394;2023-04-01T02:36:35;0.90;;;0.47;;
38865;SDS011;62686;48.984;8.394;2023-04-01T02:39:04;1.53;;;0.67;;
38865;SDS011;62686;48.984;8.394;2023-04-01T02:41:38;1.20;;;0.50;;
38865;SDS011;62686;48.984;8.394;2023-04-01T02:44:06;1.23;;;0.40;;
38865;SDS011;62686;48.984;8.394;2023-04-01T02:46:37;1.97;;;0.77;;
38865;SDS011;62686;48.984;8.394;2023-04-01T02:49:06;1.73;;;0.63;;
38865;SDS011;62686;48.984;8.394;2023-04-01T02:51:36;1.80;;;0.60;;
38865;SDS011;62686;48.984;8.394;2023-04-01T02:54:05;1.57;;;0.70;;
38865;SDS011;62686;48.984;8.394;2023-04-01T02:56:33;2.43;;;0.60;;
38865;SDS011;62686;48.984;8.394;2023-04-01T02:59:02;1.23;;;0.60;;
38865;SDS011;62686;48.984;8.394;2023-04-01T03:01:30;1.40;;;0.50;;
38865;SDS011;62686;48.984;8.394;2023-04-01T03:03:58;2.43;;;0.80;;
38865;SDS011;62686;48.984;8.394;2023-04-01T03:06:27;3.77;;;0.80;;
38865;SDS011;62686;48.984;8.394;2023-04-01T03:08:57;2.67;;;0.67;;
38865;SDS011;62686;48.984;8.394;2023-04-01T03:11:25;2.87;;;0.57;;
38865;SDS011;62686;48.984;8.394;2023-04-01T03:13:53;0.73;;;0.50;;
38865;SDS011;62686;48.984;8.394;2023-04-01T03:16:22;0.63;;;0.40;;
38865;SDS011;62686;48.984;8.394;2023-04-01T03:18:50;1.00;;;0.50;;
38865;SDS011;62686;48.984;8.394;2023-04-01T03:21:20;0.93;;;0.53;;
38865;SDS011;62686;48.984;8.394;2023-04-01T03:23:49;1.30;;;0.40;;
38865;SDS011;62686;48.984;8.394;2023-04-01T03:26:20;1.03;;;0.43;;
38865;SDS011;62686;48.984;8.394;2023-04-01T03:28:48;1.60;;;0.50;;
38865;SDS011;62686;48.984;8.394;2023-04-01T03:31:16;1.83;;;0.67;;
38865;SDS011;62686;48.984;8.394;2023-04-01T03:33:45;1.03;;;0.60;;
38865;SDS011;62686;48.984;8.394;2023-04-01T03:36:13;2.57;;;0.80;;
38865;SDS011;62686;48.984;8.394;2023-04-01T03:38:42;1.17;;;0.57;;
38865;SDS011;62686;48.984;8.394;2023-04-01T03:41:11;0.87;;;0.53;;
38865;SDS011;62686;48.984;8.394;2023-04-01T03:43:42;2.97;;;0.80;;
38865;SDS011;62686;48.984;8.394;2023-04-01T03:46:10;1.57;;;0.60;;
38865;SDS011;62686;48.984;8.394;2023-04-01T03:48:38;2.33;;;1.00;;
38865;SDS011;62686;48.984;8.394;2023-04-01T03:51:07;1.43;;;0.67;;
38865;SDS011;62686;48.984;8.394;2023-04-01T03:53:35;2.00;;;0.80;;
38865;SDS011;62686;48.984;8.394;2023-04-01T03:56:04;2.07;;;0.73;;
38865;SDS011;62686;48.984;8.394;2023-04-01T03:58:34;3.07;;;0.90;;
38865;SDS011;62686;48.984;8.394;2023-04-01T04:01:04;3.00;;;0.80;;
38865;SDS011;62686;48.984;8.394;2023-04-01T04:03:41;3.40;;;1.07;;
38865;SDS011;62686;48.984;8.394;2023-04-01T04:06:11;2.43;;;0.87;;
38865;SDS011;62686;48.984;8.394;2023-04-01T04:08:39;1.50;;;0.80;;
38865;SDS011;62686;48.984;8.394;2023-04-01T04:11:09;4.97;;;2.37;;
38865;SDS011;62686;48.984;8.394;2023-04-01T04:13:37;4.70;;;1.20;;
38865;SDS011;62686;48.984;8.394;2023-04-01T04:16:07;3.43;;;0.90;;
38865;SDS011;62686;48.984;8.394;2023-04-01T04:18:36;3.23;;;1.00;;
38865;SDS011;62686;48.984;8.394;2023-04-01T04:21:04;3.03;;;0.90;;
38865;SDS011;62686;48.984;8.394;2023-04-01T04:23:33;2.03;;;1.00;;
38865;SDS011;62686;48.984;8.394;2023-04-01T04:26:01;4.20;;;1.10;;
38865;SDS011;62686;48.984;8.394;2023-04-01T04:28:31;3.20;;;0.90;;
38865;SDS011;62686;48.984;8.394;2023-04-01T04:31:00;2.63;;;1.10;;
38865;SDS011;62686;48.984;8.394;2023-04-01T04:33:30;5.70;;;1.50;;
38865;SDS011;62686;48.984;8.394;2023-04-01T04:35:58;3.80;;;1.10;;
38865;SDS011;62686;48.984;8.394;2023-04-01T04:38:29;5.17;;;1.30;;
38865;SDS011;62686;48.984;8.394;2023-04-01T04:41:00;5.40;;;1.57;;
38865;SDS011;62686;48.984;8.394;2023-04-01T04:43:28;2.20;;;1.43;;
38865;SDS011;62686;48.984;8.394;2023-04-01T04:45:56;5.47;;;1.33;;
38865;SDS011;62686;48.984;8.394;2023-04-01T04:48:24;4.17;;;1.20;;
38865;SDS011;62686;48.984;8.394;2023-04-01T04:50:54;4.87;;;1.37;;
38865;SDS011;62686;48.984;8.394;2023-04-01T04:53:22;1.70;;;0.90;;
38865;SDS011;62686;48.984;8.394;2023-04-01T04:55:52;4.90;;;1.20;;
38865;SDS011;62686;48.984;8.394;2023-04-01T04:58:20;4.80;;;1.33;;
38865;SDS011;62686;48.984;8.394;2023-04-01T05:00:49;4.67;;;1.00;;
38865;SDS011;62686;48.984;8.394;2023-04-01T05:03:17;2.67;;;0.93;;
38865;SDS011;62686;48.984;8.394;2023-04-01T05:05:49;4.57;;;1.00;;
38865;SDS011;62686;48.984;8.394;2023-04-01T05:08:20;5.17;;;1.27;;
38865;SDS011;62686;48.984;8.394;2023-04-01T05:10:48;3.80;;;1.07;;
38865;SDS011;62686;48.984;8.394;2023-04-01T05:13:16;2.80;;;0.80;;
38865;SDS011;62686;48.984;8.394;2023-04-01T05:15:45;2.43;;;0.90;;
38865;SDS011;62686;48.984;8.394;2023-04-01T05:18:13;3.17;;;1.00;;
38865;SDS011;62686;48.984;8.394;2023-04-01T05:20:45;2.87;;;0.90;;
38865;SDS011;62686;48.984;8.394;2023-04-01T05:23:15;0.90;;;0.53;;
38865;SDS011;62686;48.984;8.394;2023-04-01T05:25:45;2.50;;;0.80;;
38865;SDS011;62686;48.984;8.394;2023-04-01T05:28:13;1.60;;;0.53;;
38865;SDS011;62686;48.984;8.394;2023-04-01T05:30:42;2.37;;;0.70;;
38865;SDS011;62686;48.984;8.394;2023-04-01T05:33:11;3.70;;;0.70;;
38865;SDS011;62686;48.984;8.394;2023-04-01T05:35:41;1.93;;;0.50;;
38865;SDS011;62686;48.984;8.394;2023-04-01T05:38:09;2.27;;;0.93;;
38865;SDS011;62686;48.984;8.394;2023-04-01T05:40:37;2.20;;;0.97;;
38865;SDS011;62686;48.984;8.394;2023-04-01T05:43:07;3.77;;;0.87;;
38865;SDS011;62686;48.984;8.394;2023-04-01T05:45:35;3.23;;;0.90;;
38865;SDS011;62686;48.984;8.394;2023-04-01T05:48:04;2.97;;;1.00;;
38865;SDS011;62686;48.984;8.394;2023-04-01T05:50:32;4.40;;;1.00;;
38865;SDS011;62686;48.984;8.394;2023-04-01T05:53:01;3.37;;;0.93;;
38865;SDS011;62686;48.984;8.394;2023-04-01T05:55:29;2.37;;;0.90;;
38865;SDS011;62686;48.984;8.394;2023-04-01T05:57:57;3.77;;;1.07;;
38865;SDS011;62686;48.984;8.394;2023-04-01T06:00:32;3.60;;;0.93;;
38865;SDS011;62686;48.984;8.394;2023-04-01T06:03:00;1.80;;;1.00;;
38865;SDS011;62686;48.984;8.394;2023-04-01T06:05:30;3.53;;;1.10;;
38865;SDS011;62686;48.984;8.394;2023-04-01T06:08:06;2.50;;;0.90;;
38865;SDS011;62686;48.984;8.394;2023-04-01T06:10:42;2.47;;;0.90;;
38865;SDS011;62686;48.984;8.394;2023-04-01T06:13:23;1.40;;;0.70;;
38865;SDS011;62686;48.984;8.394;2023-04-01T06:16:04;2.90;;;0.90;;
38865;SDS011;62686;48.984;8.394;2023-04-01T06:18:44;3.27;;;0.97;;
38865;SDS011;62686;48.984;8.394;2023-04-01T06:21:24;2.37;;;0.83;;
38865;SDS011;62686;48.984;8.394;2023-04-01T06:24:07;1.00;;;0.77;;
38865;SDS011;62686;48.984;8.394;2023-04-01T06:26:49;2.03;;;0.73;;
38865;SDS011;62686;48.984;8.394;2023-04-01T06:29:27;1.90;;;0.80;;
38865;SDS011;62686;48.984;8.394;2023-04-01T06:35:11;3.47;;;0.80;;
38865;SDS011;62686;48.984;8.394;2023-04-01T06:38:02;4.93;;;1.13;;
38865;SDS011;62686;48.984;8.394;2023-04-01T06:40:56;4.17;;;1.10;;
38865;SDS011;62686;48.984;8.394;2023-04-01T06:43:45;1.87;;;0.90;;
38865;SDS011;62686;48.984;8.394;2023-04-01T06:46:23;2.97;;;0.90;;
38865;SDS011;62686;48.984;8.394;2023-04-01T06:49:04;3.50;;;1.23;;
38865;SDS011;62686;48.984;8.394;2023-04-01T06:51:46;3.93;;;1.03;;
38865;SDS011;62686;48.984;8.394;2023-04-01T06:54:21;5.50;;;1.20;;
38865;SDS011;62686;48.984;8.394;2023-04-01T06:56:57;4.07;;;1.10;;
38865;SDS011;62686;48.984;8.394;2023-04-01T06:59:28;2.57;;;1.07;;
38865;SDS011;62686;48.984;8.394;2023-04-01T07:02:01;1.67;;;0.77;;
38865;SDS011;62686;48.984;8.394;2023-04-01T07:04:36;4.23;;;1.07;;
38865;SDS011;62686;48.984;8.394;2023-04-01T07:07:09;2.57;;;0.93;;
38865;SDS011;62686;48.984;8.394;2023-04-01T07:09:46;5.77;;;1.37;;
38865;SDS011;62686;48.984;8.394;2023-04-01T07:12:20;4.00;;;1.30;;
38865;SDS011;62686;48.984;8.394;2023-04-01T07:15:02;1.70;;;1.00;;
38865;SDS011;62686;48.984;8.394;2023-04-01T07:17:39;3.43;;;1.00;;
38865;SDS011;62686;48.984;8.394;2023-04-01T07:20:13;4.07;;;1.40;;
38865;SDS011;62686;48.984;8.394;2023-04-01T07:22:48;3.10;;;1.17;;
38865;SDS011;62686;48.984;8.394;2023-04-01T07:25:20;5.10;;;1.43;;
38865;SDS011;62686;48.984;8.394;2023-04-01T07:27:52;3.53;;;1.10;;
38865;SDS011;62686;48.984;8.394;2023-04-01T07:30:28;4.63;;;1.33;;
38865;SDS011;62686;48.984;8.394;2023-04-01T07:33:07;5.33;;;1.10;;
38865;SDS011;62686;48.984;8.394;2023-04-01T07:35:45;4.13;;;1.03;;
38865;SDS011;62686;48.984;8.394;2023-04-01T07:38:20;5.07;;;1.20;;
38865;SDS011;62686;48.984;8.394;2023-04-01T07:40:55;3.87;;;1.30;;
38865;SDS011;62686;48.984;8.394;2023-04-01T07:43:37;4.00;;;1.60;;
38865;SDS011;62686;48.984;8.394;2023-04-01T07:46:18;3.17;;;1.10;;
38865;SDS011;62686;48.984;8.394;2023-04-01T07:48:58;4.40;;;1.33;;
38865;SDS011;62686;48.984;8.394;2023-04-01T07:51:35;4.90;;;1.03;;
38865;SDS011;62686;48.984;8.394;2023-04-01T07:54:09;5.93;;;1.50;;
38865;SDS011;62686;48.984;8.394;2023-04-01T07:56:47;5.63;;;1.60;;
38865;SDS011;62686;48.984;8.394;2023-04-01T07:59:20;4.60;;;1.57;;
38865;SDS011;62686;48.984;8.394;2023-04-01T08:01:56;4.80;;;1.27;;
38865;SDS011;62686;48.984;8.394;2023-04-01T08:04:37;3.93;;;1.30;;
38865;SDS011;62686;48.984;8.394;2023-04-01T08:07:14;2.43;;;1.23;;
38865;SDS011;62686;48.984;8.394;2023-04-01T08:09:47;5.77;;;1.50;;
38865;SDS011;62686;48.984;8.394;2023-04-01T08:12:27;4.00;;;1.37;;
38865;SDS011;62686;48.984;8.394;2023-04-01T08:15:08;3.30;;;1.20;;
38865;SDS011;62686;48.984;8.394;2023-04-01T08:17:44;3.33;;;1.13;;
38865;SDS011;62686;48.984;8.394;2023-04-01T08:20:24;3.37;;;1.27;;
38865;SDS011;62686;48.984;8.394;2023-04-01T08:23:00;3.97;;;1.10;;
38865;SDS011;62686;48.984;8.394;2023-04-01T08:25:35;2.87;;;1.10;;
38865;SDS011;62686;48.984;8.394;2023-04-01T08:28:09;2.53;;;0.90;;
38865;SDS011;62686;48.984;8.394;2023-04-01T08:30:45;4.13;;;1.17;;
38865;SDS011;62686;48.984;8.394;2023-04-01T08:33:19;2.23;;;0.97;;
38865;SDS011;62686;48.984;8.394;2023-04-01T08:35:52;5.23;;;1.00;;
38865;SDS011;62686;48.984;8.394;2023-04-01T08:38:27;4.27;;;1.47;;
38865;SDS011;62686;48.984;8.394;2023-04-01T08:41:00;5.43;;;1.60;;
38865;SDS011;62686;48.984;8.394;2023-04-01T08:46:29;4.27;;;1.50;;
38865;SDS011;62686;48.984;8.394;2023-04-01T08:49:19;4.80;;;1.20;;
38865;SDS011;62686;48.984;8.394;2023-04-01T08:52:05;6.03;;;1.60;;
38865;SDS011;62686;48.984;8.394;2023-04-01T08:54:56;5.17;;;1.70;;
38865;SDS011;62686;48.984;8.394;2023-04-01T08:57:36;3.63;;;1.50;;
38865;SDS011;62686;48.984;8.394;2023-04-01T09:00:13;2.87;;;1.23;;
38865;SDS011;62686;48.984;8.394;2023-04-01T09:02:51;3.93;;;1.40;;
38865;SDS011;62686;48.984;8.394;2023-04-01T09:06:02;3.50;;;1.10;;
38865;SDS011;62686;48.984;8.394;2023-04-01T09:09:04;5.07;;;1.40;;
38865;SDS011;62686;48.984;8.394;2023-04-01T09:12:08;3.93;;;1.07;;
38865;SDS011;62686;48.984;8.394;2023-04-01T09:14:56;4.37;;;1.13;;
38865;SDS011;62686;48.984;8.394;2023-04-01T09:20:42;4.33;;;1.73;;
38865;SDS011;62686;48.984;8.394;2023-04-01T09:23:40;4.20;;;1.37;;
38865;SDS011;62686;48.984;8.394;2023-04-01T09:26:23;1.83;;;0.83;;
38865;SDS011;62686;48.984;8.394;2023-04-01T09:29:05;2.30;;;1.00;;
38865;SDS011;62686;48.984;8.394;2023-04-01T09:31:54;3.33;;;1.00;;
38865;SDS011;62686;48.984;8.394;2023-04-01T09:34:52;2.50;;;0.90;;
38865;SDS011;62686;48.984;8.394;2023-04-01T09:37:24;2.40;;;0.93;;
38865;SDS011;62686;48.984;8.394;2023-04-01T09:46:01;1.23;;;0.70;;
38865;SDS011;62686;48.984;8.394;2023-04-01T09:48:53;1.33;;;0.77;;
38865;SDS011;62686;48.984;8.394;2023-04-01T09:51:45;1.13;;;0.67;;
38865;SDS011;62686;48.984;8.394;2023-04-01T09:54:24;2.90;;;1.23;;
38865;SDS011;62686;48.984;8.394;2023-04-01T10:09:42;2.40;;;0.80;;
38865;SDS011;62686;48.984;8.394;2023-04-01T10:12:43;2.57;;;0.53;;
38865;SDS011;62686;48.984;8.394;2023-04-01T10:18:29;2.90;;;1.33;;
38865;SDS011;62686;48.984;8.394;2023-04-01T10:27:34;2.63;;;0.93;;
38865;SDS011;62686;48.984;8.394;2023-04-01T10:30:38;2.67;;;1.00;;
38865;SDS011;62686;48.984;8.394;2023-04-01T10:33:37;1.77;;;0.77;;
38865;SDS011;62686;48.984;8.394;2023-04-01T10:36:46;3.80;;;1.00;;
38865;SDS011;62686;48.984;8.394;2023-04-01T10:39:34;2.30;;;0.93;;
38865;SDS011;62686;48.984;8.394;2023-04-01T10:55:15;2.13;;;0.90;;
38865;SDS011;62686;48.984;8.394;2023-04-01T10:58:14;1.73;;;1.03;;
38865;SDS011;62686;48.984;8.394;2023-04-01T11:07:54;2.47;;;0.87;;
38865;SDS011;62686;48.984;8.394;2023-04-01T11:10:55;3.10;;;1.10;;
38865;SDS011;62686;48.984;8.394;2023-04-01T11:13:54;3.77;;;1.63;;
38865;SDS011;62686;48.984;8.394;2023-04-01T11:16:52;2.43;;;1.50;;
38865;SDS011;62686;48.984;8.394;2023-04-01T11:19:44;2.27;;;1.20;;
38865;SDS011;62686;48.984;8.394;2023-04-01T11:25:53;3.80;;;1.40;;
38865;SDS011;62686;48.984;8.394;2023-04-01T11:28:36;2.00;;;1.00;;
38865;SDS011;62686;48.984;8.394;2023-04-01T11:31:40;2.33;;;1.30;;
38865;SDS011;62686;48.984;8.394;2023-04-01T11:34:18;2.53;;;1.23;;
38865;SDS011;62686;48.984;8.394;2023-04-01T11:36:58;3.27;;;1.40;;
38865;SDS011;62686;48.984;8.394;2023-04-01T11:39:38;3.83;;;2.10;;
38865;SDS011;62686;48.984;8.394;2023-04-01T11:42:17;6.30;;;2.77;;
38865;SDS011;62686;48.984;8.394;2023-04-01T11:44:56;4.03;;;2.07;;
38865;SDS011;62686;48.984;8.394;2023-04-01T11:47:36;3.67;;;1.70;;
38865;SDS011;62686;48.984;8.394;2023-04-01T11:50:18;2.90;;;1.10;;
38865;SDS011;62686;48.984;8.394;2023-04-01T11:52:59;1.40;;;0.73;;
38865;SDS011;62686;48.984;8.394;2023-04-01T11:55:38;1.77;;;0.80;;
38865;SDS011;62686;48.984;8.394;2023-04-01T11:58:25;2.83;;;0.87;;
38865;SDS011;62686;48.984;8.394;2023-04-01T12:04:09;3.00;;;0.90;;
38865;SDS011;62686;48.984;8.394;2023-04-01T12:06:59;0.67;;;0.67;;
38865;SDS011;62686;48.984;8.394;2023-04-01T12:09:37;1.77;;;0.73;;
38865;SDS011;62686;48.984;8.394;2023-04-01T12:12:18;1.00;;;0.60;;
38865;SDS011;62686;48.984;8.394;2023-04-01T12:14:54;1.17;;;0.90;;
38865;SDS011;62686;48.984;8.394;2023-04-01T12:17:33;1.73;;;1.37;;
38865;SDS011;62686;48.984;8.394;2023-04-01T12:20:20;1.50;;;0.80;;
38865;SDS011;62686;48.984;8.394;2023-04-01T12:22:57;2.33;;;0.90;;
38865;SDS011;62686;48.984;8.394;2023-04-01T12:25:38;1.80;;;0.90;;
38865;SDS011;62686;48.984;8.394;2023-04-01T12:28:39;3.90;;;0.83;;
38865;SDS011;62686;48.984;8.394;2023-04-01T12:31:17;1.17;;;0.97;;
38865;SDS011;62686;48.984;8.394;2023-04-01T12:33:58;3.00;;;1.50;;
38865;SDS011;62686;48.984;8.394;2023-04-01T12:36:40;3.23;;;0.83;;
38865;SDS011;62686;48.984;8.394;2023-04-01T12:39:22;1.13;;;0.70;;
38865;SDS011;62686;48.984;8.394;2023-04-01T12:42:14;6.30;;;1.13;;
38865;SDS011;62686;48.984;8.394;2023-04-01T12:44:58;1.40;;;0.90;;
38865;SDS011;62686;48.984;8.394;2023-04-01T12:51:01;0.80;;;0.60;;
38865;SDS011;62686;48.984;8.394;2023-04-01T12:53:59;2.20;;;0.90;;
38865;SDS011;62686;48.984;8.394;2023-04-01T12:56:49;1.47;;;0.70;;
38865;SDS011;62686;48.984;8.394;2023-04-01T12:59:36;1.40;;;0.67;;
38865;SDS011;62686;48.984;8.394;2023-04-01T13:02:24;1.60;;;0.60;;
38865;SDS011;62686;48.984;8.394;2023-04-01T13:08:22;4.10;;;0.60;;
38865;SDS011;62686;48.984;8.394;2023-04-01T13:11:13;0.50;;;0.33;;
38865;SDS011;62686;48.984;8.394;2023-04-01T13:13:56;0.80;;;0.60;;
38865;SDS011;62686;48.984;8.394;2023-04-01T13:16:37;0.70;;;0.60;;
38865;SDS011;62686;48.984;8.394;2023-04-01T13:19:12;0.60;;;0.30;;
38865;SDS011;62686;48.984;8.394;2023-04-01T13:21:50;2.13;;;0.70;;
38865;SDS011;62686;48.984;8.394;2023-04-01T13:24:30;2.20;;;1.43;;
38865;SDS011;62686;48.984;8.394;2023-04-01T13:27:09;0.60;;;0.50;;
38865;SDS011;62686;48.984;8.394;2023-04-01T13:29:57;1.07;;;0.60;;
38865;SDS011;62686;48.984;8.394;2023-04-01T13:32:32;1.63;;;0.50;;
38865;SDS011;62686;48.984;8.394;2023-04-01T13:35:20;1.27;;;0.57;;
38865;SDS011;62686;48.984;8.394;2023-04-01T13:38:02;0.60;;;0.40;;
38865;SDS011;62686;48.984;8.394;2023-04-01T13:40:49;1.17;;;0.47;;
38865;SDS011;62686;48.984;8.394;2023-04-01T13:43:28;0.40;;;0.40;;
38865;SDS011;62686;48.984;8.394;2023-04-01T13:46:06;2.23;;;0.67;;
38865;SDS011;62686;48.984;8.394;2023-04-01T13:48:50;1.43;;;1.00;;
38865;SDS011;62686;48.984;8.394;2023-04-01T13:51:42;1.10;;;0.70;;
38865;SDS011;62686;48.984;8.394;2023-04-01T13:54:35;0.97;;;0.50;;
38865;SDS011;62686;48.984;8.394;2023-04-01T13:57:16;0.90;;;0.60;;
38865;SDS011;62686;48.984;8.394;2023-04-01T14:03:03;0.53;;;0.43;;
38865;SDS011;62686;48.984;8.394;2023-04-01T14:05:53;1.07;;;0.60;;
38865;SDS011;62686;48.984;8.394;2023-04-01T14:11:39;2.20;;;0.70;;
38865;SDS011;62686;48.984;8.394;2023-04-01T14:14:21;0.87;;;0.40;;
38865;SDS011;62686;48.984;8.394;2023-04-01T14:17:06;3.17;;;0.80;;
38865;SDS011;62686;48.984;8.394;2023-04-01T14:19:49;0.80;;;0.50;;
38865;SDS011;62686;48.984;8.394;2023-04-01T14:22:30;3.97;;;0.67;;
38865;SDS011;62686;48.984;8.394;2023-04-01T14:25:14;1.40;;;0.70;;
38865;SDS011;62686;48.984;8.394;2023-04-01T14:27:55;4.13;;;0.73;;
38865;SDS011;62686;48.984;8.394;2023-04-01T14:30:45;1.37;;;0.90;;
38865;SDS011;62686;48.984;8.394;2023-04-01T14:33:35;2.60;;;1.00;;
38865;SDS011;62686;48.984;8.394;2023-04-01T14:36:17;4.00;;;1.50;;
38865;SDS011;62686;48.984;8.394;2023-04-01T14:39:08;9.90;;;5.30;;
38865;SDS011;62686;48.984;8.394;2023-04-01T14:41:51;4.40;;;1.50;;
38865;SDS011;62686;48.984;8.394;2023-04-01T14:44:46;5.63;;;3.97;;
38865;SDS011;62686;48.984;8.394;2023-04-01T14:47:33;7.63;;;4.50;;
38865;SDS011;62686;48.984;8.394;2023-04-01T14:50:12;8.37;;;3.33;;
38865;SDS011;62686;48.984;8.394;2023-04-01T14:52:45;5.60;;;3.53;;
38865;SDS011;62686;48.984;8.394;2023-04-01T14:55:21;2.00;;;1.20;;
38865;SDS011;62686;48.984;8.394;2023-04-01T14:58:04;2.20;;;1.10;;
38865;SDS011;62686;48.984;8.394;2023-04-01T15:00:41;2.03;;;1.20;;
38865;SDS011;62686;48.984;8.394;2023-04-01T15:03:23;3.80;;;2.10;;
38865;SDS011;62686;48.984;8.394;2023-04-01T15:06:01;3.07;;;1.40;;
38865;SDS011;62686;48.984;8.394;2023-04-01T15:08:49;2.27;;;1.30;;
38865;SDS011;62686;48.984;8.394;2023-04-01T15:11:23;3.73;;;1.03;;
38865;SDS011;62686;48.984;8.394;2023-04-01T15:16:56;2.70;;;1.23;;
38865;SDS011;62686;48.984;8.394;2023-04-01T15:19:38;5.43;;;1.60;;
38865;SDS011;62686;48.984;8.394;2023-04-01T15:25:16;1.60;;;0.90;;
38865;SDS011;62686;48.984;8.394;2023-04-01T15:27:55;2.60;;;1.47;;
38865;SDS011;62686;48.984;8.394;2023-04-01T15:30:34;4.27;;;1.20;;
38865;SDS011;62686;48.984;8.394;2023-04-01T15:33:15;2.50;;;1.00;;
38865;SDS011;62686;48.984;8.394;2023-04-01T15:36:07;1.37;;;1.20;;
38865;SDS011;62686;48.984;8.394;2023-04-01T15:38:46;1.53;;;1.10;;
38865;SDS011;62686;48.984;8.394;2023-04-01T15:41:20;2.80;;;1.30;;
38865;SDS011;62686;48.984;8.394;2023-04-01T15:43:55;2.17;;;0.90;;
38865;SDS011;62686;48.984;8.394;2023-04-01T15:46:28;2.10;;;0.90;;
38865;SDS011;62686;48.984;8.394;2023-04-01T15:49:15;2.33;;;1.20;;
38865;SDS011;62686;48.984;8.394;2023-04-01T15:54:52;2.00;;;1.00;;
38865;SDS011;62686;48.984;8.394;2023-04-01T15:57:30;2.30;;;1.10;;
38865;SDS011;62686;48.984;8.394;2023-04-01T16:00:10;2.10;;;1.40;;
38865;SDS011;62686;48.984;8.394;2023-04-01T16:02:49;2.73;;;1.23;;
38865;SDS011;62686;48.984;8.394;2023-04-01T16:05:35;4.33;;;2.87;;
38865;SDS011;62686;48.984;8.394;2023-04-01T16:08:17;4.70;;;1.73;;
38865;SDS011;62686;48.984;8.394;2023-04-01T16:11:12;5.90;;;2.83;;
38865;SDS011;62686;48.984;8.394;2023-04-01T16:13:53;3.77;;;1.63;;
38865;SDS011;62686;48.984;8.394;2023-04-01T16:16:33;2.00;;;1.30;;
38865;SDS011;62686;48.984;8.394;2023-04-01T16:22:05;1.70;;;1.20;;
38865;SDS011;62686;48.984;8.394;2023-04-01T16:24:38;5.97;;;1.37;;
38865;SDS011;62686;48.984;8.394;2023-04-01T16:27:12;2.83;;;0.90;;
38865;SDS011;62686;48.984;8.394;2023-04-01T16:29:45;2.30;;;1.10;;
38865;SDS011;62686;48.984;8.394;2023-04-01T16:32:18;1.57;;;0.90;;
38865;SDS011;62686;48.984;8.394;2023-04-01T16:35:01;3.53;;;0.97;;
38865;SDS011;62686;48.984;8.394;2023-04-01T16:37:59;3.73;;;1.10;;
38865;SDS011;62686;48.984;8.394;2023-04-01T16:40:38;1.57;;;0.90;;
38865;SDS011;62686;48.984;8.394;2023-04-01T16:43:11;2.70;;;1.20;;
38865;SDS011;62686;48.984;8.394;2023-04-01T16:45:53;2.27;;;1.10;;
38865;SDS011;62686;48.984;8.394;2023-04-01T16:48:34;2.40;;;1.07;;
38865;SDS011;62686;48.984;8.394;2023-04-01T16:51:17;2.07;;;1.17;;
38865;SDS011;62686;48.984;8.394;2023-04-01T16:53:47;7.23;;;1.33;;
38865;SDS011;62686;48.984;8.394;2023-04-01T16:56:20;5.47;;;1.43;;
38865;SDS011;62686;48.984;8.394;2023-04-01T16:58:56;2.80;;;1.10;;
38865;SDS011;62686;48.984;8.394;2023-04-01T17:01:31;3.07;;;1.57;;
38865;SDS011;62686;48.984;8.394;2023-04-01T17:04:12;1.73;;;1.00;;
38865;SDS011;62686;48.984;8.394;2023-04-01T17:06:49;2.70;;;1.10;;
38865;SDS011;62686;48.984;8.394;2023-04-01T17:09:26;3.67;;;1.20;;
38865;SDS011;62686;48.984;8.394;2023-04-01T17:12:04;4.40;;;1.27;;
38865;SDS011;62686;48.984;8.394;2023-04-01T17:14:41;2.90;;;1.10;;
38865;SDS011;62686;48.984;8.394;2023-04-01T17:17:23;2.00;;;1.23;;